Time;durP1;ratioP1;P1;durP2;ratioP2;P2;SDS_P1;SDS_P2;PMS_P1;PMS_P2;Temp;Humidity;BMP_temperature;BMP_pressure;BME280_temperature;BME280_humidity;BME280_pressure;Samples;Min_cycle;Max_cycle;Signal;HPM_P1;HPM_P2
2023/08/12 00:01:42;;;;;;;0.40;0.30;;;;;;;20.61;84.98;95789.56;5113496;28;20669;-56
2023/08/12 00:04:14;;;;;;;0.50;0.40;;;;;;;20.80;83.99;95798.06;5114622;28;20937;-56
2023/08/12 00:06:43;;;;;;;0.40;0.30;;;;;;;20.78;84.04;95793.00;5114681;27;20825;-56
2023/08/12 00:09:11;;;;;;;0.50;0.40;;;;;;;20.76;84.21;95791.75;5099956;28;20463;-55
2023/08/12 00:11:40;;;;;;;0.50;0.30;;;;;;;20.78;84.37;95790.31;5114482;28;20757;-55
2023/08/12 00:14:10;;;;;;;0.40;0.30;;;;;;;20.65;83.44;95796.69;5113958;28;20439;-55
2023/08/12 00:16:38;;;;;;;0.50;0.33;;;;;;;20.60;81.29;95793.38;5114103;27;20435;-55
2023/08/12 00:19:08;;;;;;;0.40;0.30;;;;;;;20.57;81.78;95789.41;5114046;28;20510;-55
2023/08/12 00:21:36;;;;;;;0.53;0.53;;;;;;;20.55;81.64;95794.34;5113590;28;20990;-55
2023/08/12 00:24:05;;;;;;;0.40;0.30;;;;;;;20.54;81.25;95794.66;5113913;28;20435;-55
2023/08/12 00:26:34;;;;;;;0.60;0.30;;;;;;;20.69;78.91;95784.19;5114000;28;20439;-55
2023/08/12 00:29:02;;;;;;;0.40;0.30;;;;;;;20.22;80.58;95791.34;5113787;28;20444;-55
2023/08/12 00:31:32;;;;;;;0.47;0.30;;;;;;;20.10;83.19;95793.91;5114327;28;20440;-55
2023/08/12 00:34:00;;;;;;;0.50;0.33;;;;;;;20.38;79.69;95796.28;5113279;28;20438;-55
2023/08/12 00:36:29;;;;;;;0.43;0.30;;;;;;;20.59;79.54;95792.56;5113936;28;20471;-55
2023/08/12 00:38:57;;;;;;;0.50;0.30;;;;;;;20.78;78.52;95784.13;5113424;28;20980;-55
2023/08/12 00:41:25;;;;;;;0.40;0.20;;;;;;;20.83;77.76;95782.06;5114282;28;20476;-56
2023/08/12 00:43:54;;;;;;;0.43;0.27;;;;;;;20.92;77.58;95790.13;5113586;28;20435;-55
2023/08/12 00:46:23;;;;;;;0.90;0.30;;;;;;;20.58;78.25;95787.53;5114088;28;20516;-55
2023/08/12 00:48:53;;;;;;;0.40;0.30;;;;;;;20.43;78.46;95785.34;5113116;28;21019;-55
2023/08/12 00:51:21;;;;;;;0.50;0.30;;;;;;;20.48;79.80;95774.41;5113205;28;20443;-55
2023/08/12 00:53:51;;;;;;;0.40;0.20;;;;;;;20.47;79.49;95729.72;5113199;28;20930;-55
2023/08/12 00:56:20;;;;;;;0.50;0.30;;;;;;;20.81;79.16;95776.22;5113093;28;20440;-55
2023/08/12 00:58:49;;;;;;;3.43;0.30;;;;;;;20.75;79.89;95777.47;5113626;28;20448;-55
2023/08/12 01:01:17;;;;;;;0.90;0.30;;;;;;;19.97;88.37;95789.47;5112693;28;20440;-55
2023/08/12 01:03:46;;;;;;;0.50;0.50;;;;;;;19.42;98.62;95780.41;5112679;28;20432;-56
2023/08/12 01:06:16;;;;;;;0.50;0.40;;;;;;;19.35;100.00;95785.41;5112992;28;20470;-55
2023/08/12 01:08:45;;;;;;;0.50;0.40;;;;;;;19.55;99.75;95782.16;5112850;27;20444;-55
2023/08/12 01:11:18;;;;;;;0.50;0.40;;;;;;;20.22;91.18;95777.09;5113164;28;20917;-55
2023/08/12 01:13:53;;;;;;;0.50;0.30;;;;;;;20.00;94.43;95775.38;5112882;28;20467;-55
2023/08/12 01:16:23;;;;;;;0.50;0.40;;;;;;;19.90;96.58;95781.09;5112626;28;20492;-55
2023/08/12 01:18:52;;;;;;;0.40;0.30;;;;;;;19.86;98.49;95777.44;5112811;28;20444;-55
2023/08/12 01:21:22;;;;;;;0.40;0.40;;;;;;;20.26;94.08;95778.84;5112664;28;20459;-55
2023/08/12 01:23:53;;;;;;;0.40;0.30;;;;;;;20.45;90.24;95775.81;5112904;28;20908;-55
2023/08/12 01:26:21;;;;;;;0.50;0.40;;;;;;;20.52;89.64;95775.31;5112781;28;20444;-55
2023/08/12 01:28:49;;;;;;;0.40;0.30;;;;;;;20.52;89.91;95788.78;5112370;28;20436;-55
2023/08/12 01:31:29;;;;;;;0.40;0.30;;;;;;;20.12;96.22;95769.34;5112750;28;20440;-55
2023/08/12 01:34:08;;;;;;;0.40;0.30;;;;;;;20.43;91.97;95777.25;5112010;28;20439;-55
2023/08/12 01:36:39;;;;;;;0.50;0.40;;;;;;;20.37;92.25;95773.94;5111312;28;20439;-55
2023/08/12 01:39:11;;;;;;;1.63;0.70;;;;;;;20.17;95.46;95774.56;5111377;28;20870;-55
2023/08/12 01:41:39;;;;;;;0.60;0.60;;;;;;;19.41;100.00;95776.91;5111852;28;20925;-56
2023/08/12 01:44:08;;;;;;;0.50;0.30;;;;;;;19.79;98.27;95755.59;5086518;28;20998;-55
2023/08/12 01:46:37;;;;;;;0.40;0.30;;;;;;;20.29;94.11;95763.97;5111860;28;20467;-55
2023/08/12 01:49:05;;;;;;;0.70;0.70;;;;;;;20.21;93.73;95770.16;5111843;28;20460;-55
2023/08/12 01:51:34;;;;;;;0.50;0.50;;;;;;;19.37;100.00;95773.28;5111754;28;20566;-55
2023/08/12 01:54:02;;;;;;;0.63;0.60;;;;;;;18.82;100.00;95719.19;5112117;28;20443;-56
2023/08/12 01:56:32;;;;;;;0.57;0.50;;;;;;;19.31;100.00;95773.69;5111784;28;20444;-56
2023/08/12 01:59:00;;;;;;;1.10;0.60;;;;;;;19.05;100.00;95780.91;5102861;28;20489;-56
2023/08/12 02:01:29;;;;;;;0.60;0.40;;;;;;;18.75;100.00;95775.25;5108465;28;20475;-57
2023/08/12 02:03:57;;;;;;;1.20;1.13;;;;;;;18.69;100.00;95786.44;5112052;28;20439;-56
2023/08/12 02:06:25;;;;;;;0.47;0.43;;;;;;;18.60;100.00;95783.69;5111744;28;20519;-56
2023/08/12 02:08:54;;;;;;;0.50;0.30;;;;;;;18.67;100.00;95780.59;5112206;28;20542;-57
2023/08/12 02:11:22;;;;;;;0.60;0.30;;;;;;;19.27;100.00;95792.34;5111702;28;20467;-57
2023/08/12 02:13:52;;;;;;;0.67;0.40;;;;;;;19.06;100.00;95793.22;5111635;28;20436;-57
2023/08/12 02:16:20;;;;;;;0.60;0.50;;;;;;;19.53;100.00;95793.22;5112135;28;20444;-57
2023/08/12 02:18:49;;;;;;;0.60;0.40;;;;;;;19.62;100.00;95785.16;5112055;28;20471;-57
2023/08/12 02:21:17;;;;;;;0.50;0.30;;;;;;;19.82;100.00;95778.38;5111429;28;20998;-57
2023/08/12 02:23:45;;;;;;;0.50;0.30;;;;;;;19.59;100.00;95785.78;5111565;28;20488;-57
2023/08/12 02:26:13;;;;;;;1.33;0.60;;;;;;;19.56;100.00;95781.84;5085676;28;20526;-57
2023/08/12 02:28:42;;;;;;;0.47;0.37;;;;;;;19.75;100.00;95778.88;5111319;28;20440;-57
2023/08/12 02:31:11;;;;;;;0.70;0.53;;;;;;;19.56;100.00;95773.78;5111996;28;20866;-57
2023/08/12 02:33:40;;;;;;;0.80;0.80;;;;;;;19.90;100.00;95778.41;5111636;28;20458;-57
2023/08/12 02:36:08;;;;;;;0.50;0.30;;;;;;;20.10;100.00;95776.97;5111644;28;20451;-56
2023/08/12 02:38:36;;;;;;;1.10;0.47;;;;;;;20.27;98.60;95777.75;5111598;28;20786;-56
2023/08/12 02:41:05;;;;;;;0.70;0.70;;;;;;;19.88;100.00;95788.69;5111816;28;20581;-56
2023/08/12 02:43:33;;;;;;;1.00;1.00;;;;;;;19.44;100.00;95797.78;5097943;28;20892;-56
2023/08/12 02:46:01;;;;;;;0.60;0.40;;;;;;;19.30;100.00;95789.03;5101939;28;20447;-57
2023/08/12 02:48:31;;;;;;;0.50;0.30;;;;;;;19.34;100.00;95795.38;5094098;28;20459;-57
2023/08/12 02:50:59;;;;;;;0.40;0.20;;;;;;;19.56;100.00;95792.59;5112172;28;20432;-57
2023/08/12 02:53:28;;;;;;;0.40;0.20;;;;;;;20.09;100.00;95792.31;5111320;28;20481;-57
2023/08/12 02:55:56;;;;;;;0.90;0.73;;;;;;;20.21;99.25;95792.44;5111550;28;20431;-57
2023/08/12 02:58:24;;;;;;;0.40;0.30;;;;;;;20.32;97.54;95794.84;5111499;28;20432;-57
2023/08/12 03:00:53;;;;;;;0.43;0.30;;;;;;;20.22;98.67;95794.03;5111381;28;20562;-56
2023/08/12 03:03:21;;;;;;;0.50;0.30;;;;;;;20.32;98.06;95798.34;5111349;28;20457;-57
2023/08/12 03:05:51;;;;;;;0.50;0.50;;;;;;;20.33;98.66;95794.53;5111295;28;20444;-56
2023/08/12 03:08:19;;;;;;;0.40;0.27;;;;;;;20.31;99.42;95793.28;5111769;28;20428;-56
2023/08/12 03:10:48;;;;;;;0.50;0.30;;;;;;;20.29;99.10;95798.19;5111288;28;20450;-56
2023/08/12 03:13:16;;;;;;;0.50;0.40;;;;;;;20.35;99.08;95802.28;5098056;28;20485;-56
2023/08/12 03:15:44;;;;;;;0.60;0.50;;;;;;;20.29;99.46;95793.56;5097644;28;20453;-56
2023/08/12 03:18:13;;;;;;;0.50;0.30;;;;;;;20.33;97.99;95796.44;5111770;28;20446;-55
2023/08/12 03:20:41;;;;;;;0.40;0.30;;;;;;;20.35;98.13;95792.31;5111215;28;20552;-56
2023/08/12 03:23:11;;;;;;;0.50;0.40;;;;;;;20.19;98.05;95791.19;5110342;28;20991;-56
2023/08/12 03:25:39;;;;;;;0.50;0.40;;;;;;;20.18;97.04;95787.72;5107190;28;20440;-55
2023/08/12 03:28:07;;;;;;;0.50;0.30;;;;;;;20.24;96.22;95797.22;5115031;28;20475;-55
2023/08/12 03:30:36;;;;;;;0.40;0.30;;;;;;;20.31;94.27;95801.34;5114386;28;20448;-54
2023/08/12 03:33:05;;;;;;;0.40;0.20;;;;;;;20.18;94.11;95782.34;5114751;28;20496;-55
2023/08/12 03:35:33;;;;;;;0.50;0.30;;;;;;;20.39;92.28;95803.25;5111309;28;20494;-55
2023/08/12 03:38:01;;;;;;;0.40;0.30;;;;;;;20.42;91.83;95806.06;5105587;28;20440;-55
2023/08/12 03:40:31;;;;;;;0.40;0.30;;;;;;;20.44;92.13;95787.69;5114972;28;20560;-55
2023/08/12 03:42:59;;;;;;;0.50;0.30;;;;;;;20.50;93.45;95799.09;5115082;28;20440;-55
2023/08/12 03:45:28;;;;;;;0.40;0.20;;;;;;;20.55;91.69;95798.94;5114574;28;20497;-55
2023/08/12 03:47:56;;;;;;;0.60;0.53;;;;;;;20.46;92.67;95804.34;5113497;28;20448;-53
2023/08/12 03:50:24;;;;;;;1.17;0.93;;;;;;;20.51;91.79;95804.19;5114062;28;20488;-52
2023/08/12 03:52:53;;;;;;;0.40;0.20;;;;;;;20.45;93.14;95801.97;5114319;28;20432;-52
2023/08/12 03:55:22;;;;;;;0.40;0.20;;;;;;;20.54;90.09;95803.50;5088145;28;21091;-52
2023/08/12 03:57:52;;;;;;;0.47;0.33;;;;;;;20.30;88.87;95797.88;5109275;28;20432;-52
2023/08/12 04:00:20;;;;;;;0.50;0.30;;;;;;;20.38;90.92;95798.97;5114249;28;20436;-52
2023/08/12 04:02:49;;;;;;;0.50;0.30;;;;;;;20.42;90.68;95791.81;5114154;28;20439;-52
2023/08/12 04:05:17;;;;;;;0.40;0.30;;;;;;;20.46;90.09;95798.16;5114368;28;20472;-52
2023/08/12 04:07:45;;;;;;;0.40;0.30;;;;;;;20.50;88.28;95801.78;5113812;28;20443;-52
2023/08/12 04:10:14;;;;;;;0.50;0.40;;;;;;;20.60;87.35;95804.13;5114133;28;20436;-52
2023/08/12 04:12:43;;;;;;;0.50;0.43;;;;;;;20.38;88.73;95807.03;5114208;28;20440;-52
2023/08/12 04:15:13;;;;;;;0.40;0.30;;;;;;;20.36;89.88;95806.56;5113681;28;20569;-52
2023/08/12 04:17:41;;;;;;;0.70;0.50;;;;;;;20.43;87.47;95807.69;5113768;28;20436;-51
2023/08/12 04:20:10;;;;;;;0.47;0.30;;;;;;;20.70;84.86;95796.53;5113549;28;20956;-52
2023/08/12 04:22:38;;;;;;;0.40;0.27;;;;;;;20.80;83.98;95803.47;5113668;28;20471;-51
2023/08/12 04:25:08;;;;;;;0.40;0.20;;;;;;;20.77;84.46;95804.88;5113900;28;20440;-52
2023/08/12 04:27:36;;;;;;;0.40;0.30;;;;;;;20.90;83.64;95808.50;5108729;27;20934;-51
2023/08/12 04:30:05;;;;;;;0.40;0.30;;;;;;;21.02;81.09;95810.53;5105537;28;20530;-53
2023/08/12 04:32:35;;;;;;;0.40;0.20;;;;;;;20.88;82.38;95810.72;5113637;28;20960;-53
2023/08/12 04:35:03;;;;;;;0.40;0.27;;;;;;;21.05;81.41;95807.97;5113647;28;20439;-54
2023/08/12 04:37:32;;;;;;;0.77;0.50;;;;;;;20.85;87.56;95811.38;5086433;28;20443;-53
2023/08/12 04:40:00;;;;;;;0.40;0.20;;;;;;;21.15;85.41;95813.03;5113678;28;20459;-53
2023/08/12 04:42:29;;;;;;;0.50;0.43;;;;;;;21.17;86.06;95818.91;5113382;28;20532;-53
2023/08/12 04:44:57;;;;;;;0.80;0.80;;;;;;;21.05;85.75;95807.97;5113026;28;20468;-53
2023/08/12 04:47:25;;;;;;;1.17;0.40;;;;;;;21.09;85.37;95814.34;5113017;28;20458;-53
2023/08/12 04:49:58;;;;;;;0.50;0.40;;;;;;;21.23;82.81;95812.19;5112586;28;20578;-52
2023/08/12 04:52:26;;;;;;;0.40;0.30;;;;;;;21.21;82.62;95811.75;5113120;28;20447;-52
2023/08/12 04:54:55;;;;;;;0.50;0.30;;;;;;;21.31;83.07;95805.97;5113033;28;20469;-51
2023/08/12 04:57:23;;;;;;;0.40;0.30;;;;;;;21.18;81.15;95808.88;5112759;28;20440;-51
2023/08/12 04:59:51;;;;;;;8.90;0.60;;;;;;;20.84;80.72;95810.59;5112794;28;20968;-51
2023/08/12 05:02:20;;;;;;;0.53;0.53;;;;;;;20.86;80.96;95812.97;5113203;28;20472;-50
2023/08/12 05:04:50;;;;;;;1.40;0.30;;;;;;;20.84;80.45;95812.50;5112413;28;20951;-51
2023/08/12 05:07:19;;;;;;;0.47;0.40;;;;;;;20.75;80.53;95800.94;5112710;28;20541;-52
2023/08/12 05:09:48;;;;;;;0.80;0.40;;;;;;;20.89;80.57;95813.13;5112695;28;20478;-50
2023/08/12 05:12:16;;;;;;;0.40;0.30;;;;;;;21.20;79.90;95804.75;5112803;28;20447;-51
2023/08/12 05:14:44;;;;;;;0.40;0.30;;;;;;;21.34;78.43;95802.63;5112769;28;20432;-51
2023/08/12 05:17:13;;;;;;;0.50;0.33;;;;;;;21.42;78.51;95807.22;5112671;28;20470;-51
2023/08/12 05:19:41;;;;;;;0.60;0.33;;;;;;;21.78;76.66;95806.63;5112624;28;20458;-51
2023/08/12 05:22:09;;;;;;;0.50;0.30;;;;;;;21.91;76.10;95807.53;5112255;28;20467;-51
2023/08/12 05:24:39;;;;;;;0.40;0.30;;;;;;;22.09;77.49;95804.38;5085452;28;20435;-50
2023/08/12 05:27:08;;;;;;;0.60;0.50;;;;;;;21.41;90.57;95805.63;5111950;28;20439;-51
2023/08/12 05:29:36;;;;;;;0.50;0.40;;;;;;;21.65;91.88;95806.91;5112766;28;20894;-50
2023/08/12 05:32:05;;;;;;;2.00;1.20;;;;;;;21.45;96.56;95805.75;5111740;28;20519;-50
2023/08/12 05:34:33;;;;;;;0.60;0.40;;;;;;;21.49;96.91;95806.69;5103349;28;20443;-50
2023/08/12 05:37:02;;;;;;;0.87;0.60;;;;;;;21.62;97.10;95810.25;5108281;28;21880;-50
2023/08/12 05:39:30;;;;;;;0.50;0.40;;;;;;;21.53;98.72;95810.28;5112342;28;20436;-51
2023/08/12 05:42:00;;;;;;;0.50;0.50;;;;;;;21.83;95.84;95805.69;5111215;28;20475;-51
2023/08/12 05:44:28;;;;;;;0.50;0.50;;;;;;;21.52;97.32;95792.53;5112798;28;20489;-51
2023/08/12 05:46:57;;;;;;;0.60;0.50;;;;;;;21.75;96.20;95795.72;5112546;28;20459;-51
2023/08/12 05:49:25;;;;;;;0.63;0.40;;;;;;;21.91;94.37;95794.03;5111720;28;20516;-51
2023/08/12 05:51:53;;;;;;;0.80;0.77;;;;;;;22.01;93.48;95780.94;5111948;28;20435;-51
2023/08/12 05:54:22;;;;;;;1.00;0.50;;;;;;;22.03;90.01;95794.94;5112407;28;20440;-51
2023/08/12 05:56:50;;;;;;;1.80;1.70;;;;;;;21.82;90.92;95785.19;5111572;28;20444;-51
2023/08/12 05:59:20;;;;;;;0.70;0.47;;;;;;;21.89;91.90;95769.28;5112308;28;20432;-52
2023/08/12 06:01:48;;;;;;;0.50;0.40;;;;;;;22.38;88.91;95779.19;5085141;28;20463;-52
2023/08/12 06:04:16;;;;;;;0.80;0.57;;;;;;;22.66;84.58;95780.22;5111612;28;20431;-51
2023/08/12 06:06:45;;;;;;;0.50;0.30;;;;;;;22.87;83.89;95773.94;5112467;28;20435;-51
2023/08/12 06:09:13;;;;;;;0.80;0.40;;;;;;;22.90;82.94;95757.84;5111991;27;20530;-51
2023/08/12 06:11:41;;;;;;;0.87;0.63;;;;;;;23.29;79.41;95764.50;5112049;28;20447;-51
2023/08/12 06:14:10;;;;;;;0.60;0.60;;;;;;;23.38;78.29;95759.78;5111568;28;20447;-51
2023/08/12 06:16:39;;;;;;;1.10;1.00;;;;;;;23.38;76.69;95745.50;5111869;28;20942;-51
2023/08/12 06:19:08;;;;;;;1.57;1.47;;;;;;;23.43;76.57;95756.84;5111261;28;20448;-51
2023/08/12 06:21:36;;;;;;;1.83;1.10;;;;;;;23.50;76.91;95761.72;5111349;28;20436;-50
2023/08/12 06:24:05;;;;;;;1.83;0.93;;;;;;;23.79;76.57;95754.09;5111053;28;20439;-51
2023/08/12 06:26:34;;;;;;;0.60;0.40;;;;;;;24.08;74.40;95758.44;5111543;28;20444;-52
2023/08/12 06:29:02;;;;;;;0.60;0.60;;;;;;;24.17;72.33;95759.06;5111328;28;20514;-52
2023/08/12 06:31:33;;;;;;;0.50;0.37;;;;;;;24.75;69.59;95754.03;5111515;28;20518;-52
2023/08/12 06:34:03;;;;;;;0.50;0.40;;;;;;;24.49;69.39;95751.81;5111391;28;20515;-52
2023/08/12 06:36:31;;;;;;;1.97;0.63;;;;;;;25.05;68.91;95747.84;5111363;28;20436;-52
2023/08/12 06:38:59;;;;;;;0.60;0.60;;;;;;;25.49;68.87;95739.63;5111584;28;20471;-53
2023/08/12 06:41:28;;;;;;;0.50;0.50;;;;;;;25.48;65.96;95746.97;5111248;28;20455;-52
2023/08/12 06:43:56;;;;;;;1.03;0.50;;;;;;;24.97;66.90;95729.06;5110935;28;20510;-53
2023/08/12 06:46:25;;;;;;;1.23;0.73;;;;;;;25.23;66.04;95734.72;5111261;28;20439;-53
2023/08/12 06:48:53;;;;;;;0.40;0.30;;;;;;;25.53;65.77;95737.75;5110872;28;20550;-53
2023/08/12 06:51:23;;;;;;;1.07;0.87;;;;;;;25.84;63.90;95738.47;5111060;28;20528;-52
2023/08/12 06:53:51;;;;;;;0.40;0.30;;;;;;;26.77;62.63;95738.34;5102838;28;20834;-52
2023/08/12 06:56:19;;;;;;;0.43;0.30;;;;;;;27.27;60.28;95727.16;5106462;28;20605;-53
2023/08/12 06:58:47;;;;;;;0.50;0.50;;;;;;;27.02;59.65;95734.91;5111015;28;20992;-53
2023/08/12 07:01:16;;;;;;;0.83;0.83;;;;;;;27.16;58.50;95723.47;5112837;28;20861;-54
2023/08/12 07:03:44;;;;;;;0.63;0.63;;;;;;;26.52;59.00;95729.72;5115790;28;20478;-53
2023/08/12 07:06:13;;;;;;;0.60;0.40;;;;;;;26.16;59.77;95727.50;5115362;28;20833;-54
2023/08/12 07:08:42;;;;;;;0.50;0.50;;;;;;;25.89;59.76;95726.53;5115037;28;20500;-54
2023/08/12 07:11:10;;;;;;;0.40;0.30;;;;;;;25.99;60.93;95723.25;5114200;28;21149;-54
2023/08/12 07:13:39;;;;;;;0.60;0.43;;;;;;;25.62;60.44;95719.34;5114896;28;20448;-54
2023/08/12 07:16:07;;;;;;;0.60;0.47;;;;;;;25.66;61.99;95723.72;5114913;28;20489;-53
2023/08/12 07:18:35;;;;;;;0.50;0.40;;;;;;;25.31;62.32;95719.38;5115068;28;20568;-54
2023/08/12 07:21:04;;;;;;;0.70;0.70;;;;;;;25.22;63.64;95725.03;5115260;28;20447;-54
2023/08/12 07:23:32;;;;;;;0.50;0.40;;;;;;;25.77;62.95;95723.94;5114957;28;20475;-54
2023/08/12 07:26:02;;;;;;;0.40;0.30;;;;;;;26.62;59.93;95722.91;5115145;28;20574;-54
2023/08/12 07:28:30;;;;;;;0.87;0.73;;;;;;;26.17;59.67;95713.53;5114557;28;20505;-54
2023/08/12 07:31:01;;;;;;;0.50;0.40;;;;;;;26.15;58.76;95720.47;5114554;28;20440;-54
2023/08/12 07:33:30;;;;;;;0.50;0.40;;;;;;;26.31;58.95;95708.38;5114731;28;20434;-55
2023/08/12 07:35:58;;;;;;;0.40;0.40;;;;;;;26.56;58.95;95708.84;5114710;28;20446;-54
2023/08/12 07:38:26;;;;;;;0.50;0.40;;;;;;;26.68;57.94;95705.16;5114718;28;21108;-54
2023/08/12 07:40:55;;;;;;;0.40;0.30;;;;;;;27.29;56.85;95700.34;5115152;28;20439;-54
2023/08/12 07:43:25;;;;;;;0.50;0.40;;;;;;;27.89;55.39;95689.53;5114036;28;21020;-55
2023/08/12 07:45:53;;;;;;;0.50;0.40;;;;;;;27.66;54.24;95695.84;5114405;28;20455;-55
2023/08/12 07:48:36;;;;;;;0.50;0.30;;;;;;;27.71;54.17;95684.63;5113434;27;20466;-56
2023/08/12 07:51:04;;;;;;;0.40;0.40;;;;;;;27.62;52.96;95684.13;5114566;27;20443;-56
2023/08/12 07:53:33;;;;;;;0.40;0.40;;;;;;;27.28;52.09;95687.88;5113965;28;20914;-55
2023/08/12 07:56:01;;;;;;;0.40;0.40;;;;;;;27.33;53.04;95689.50;5114829;28;20869;-55
2023/08/12 07:58:31;;;;;;;0.40;0.30;;;;;;;27.30;53.75;95682.84;5101231;28;20505;-55
2023/08/12 08:00:59;;;;;;;0.40;0.30;;;;;;;27.02;52.71;95679.72;5113794;28;20473;-55
2023/08/12 08:03:27;;;;;;;0.50;0.40;;;;;;;27.13;52.79;95677.94;5113838;28;20495;-53
2023/08/12 08:05:56;;;;;;;0.50;0.40;;;;;;;27.19;53.95;95675.69;5110562;28;20478;-53
2023/08/12 08:08:25;;;;;;;0.40;0.30;;;;;;;27.90;51.23;95670.09;5081363;28;20443;-53
2023/08/12 08:10:53;;;;;;;0.40;0.30;;;;;;;28.43;52.21;95667.19;5102090;28;20459;-53
2023/08/12 08:13:21;;;;;;;0.40;0.30;;;;;;;29.19;47.78;95660.84;5113906;28;20435;-54
2023/08/12 08:15:51;;;;;;;0.93;0.50;;;;;;;29.07;44.86;95657.66;5113986;28;20478;-55
2023/08/12 08:18:19;;;;;;;0.40;0.30;;;;;;;28.24;43.74;95665.44;5100179;28;21023;-54
2023/08/12 08:20:48;;;;;;;0.40;0.30;;;;;;;27.54;45.11;95666.13;5089827;28;20806;-56
2023/08/12 08:23:16;;;;;;;0.50;0.40;;;;;;;27.73;46.69;95670.63;5104267;28;21055;-64
2023/08/12 08:25:44;;;;;;;0.60;0.40;;;;;;;27.99;47.67;95664.34;5113970;28;21097;-55
2023/08/12 08:28:13;;;;;;;0.93;0.90;;;;;;;29.52;49.51;95662.66;5113792;28;20443;-54
2023/08/12 08:30:41;;;;;;;4.13;0.50;;;;;;;28.97;44.37;95628.31;5108659;28;20457;-52
2023/08/12 08:33:11;;;;;;;1.63;0.70;;;;;;;28.73;43.96;95657.75;5104861;28;20440;-53
2023/08/12 08:35:39;;;;;;;0.43;0.33;;;;;;;28.53;44.89;95659.13;5113476;28;20439;-54
2023/08/12 08:38:08;;;;;;;0.50;0.40;;;;;;;28.65;45.25;95653.41;5113478;28;20805;-53
2023/08/12 08:40:37;;;;;;;0.90;0.90;;;;;;;28.81;45.36;95655.88;5086839;28;20488;-52
2023/08/12 08:43:09;;;;;;;3.50;0.80;;;;;;;28.88;45.81;95656.72;5093257;28;20476;-57
2023/08/12 08:45:39;;;;;;;0.57;0.40;;;;;;;29.38;45.77;95663.34;5091528;28;20537;-53
2023/08/12 08:48:12;;;;;;;0.40;0.30;;;;;;;29.13;45.50;95642.47;5103335;28;20569;-52
2023/08/12 08:50:42;;;;;;;0.57;0.57;;;;;;;28.64;46.61;95646.38;5109545;28;20447;-53
2023/08/12 08:53:10;;;;;;;0.50;0.50;;;;;;;28.39;47.07;95650.78;5085925;28;20501;-53
2023/08/12 08:55:39;;;;;;;0.40;0.30;;;;;;;28.30;47.91;95653.81;5093248;28;20549;-53
2023/08/12 08:58:07;;;;;;;0.30;0.30;;;;;;;28.44;46.82;95653.16;5104717;28;20483;-54
2023/08/12 09:00:37;;;;;;;0.70;0.43;;;;;;;28.32;46.34;95634.34;5113031;28;20843;-54
2023/08/12 09:03:07;;;;;;;0.60;0.40;;;;;;;28.31;46.46;95647.19;5113011;28;20478;-54
2023/08/12 09:05:39;;;;;;;0.40;0.30;;;;;;;28.69;44.26;95648.00;5113469;28;20439;-54
2023/08/12 09:08:10;;;;;;;0.57;0.43;;;;;;;28.82;47.98;95592.75;5113264;28;20500;-53
2023/08/12 09:10:41;;;;;;;0.80;0.30;;;;;;;29.50;46.22;95640.38;5112706;28;20457;-53
2023/08/12 09:13:09;;;;;;;0.40;0.30;;;;;;;29.97;41.93;95631.25;5112526;28;20933;-53
2023/08/12 09:15:38;;;;;;;0.40;0.30;;;;;;;29.72;43.82;95622.94;5085569;28;20448;-53
2023/08/12 09:18:07;;;;;;;0.47;0.37;;;;;;;29.87;40.61;95627.31;5108584;28;20500;-51
2023/08/12 09:20:37;;;;;;;0.40;0.30;;;;;;;30.29;40.31;95610.22;5112751;28;20824;-51
2023/08/12 09:23:08;;;;;;;0.40;0.30;;;;;;;31.41;37.99;95603.97;5112233;28;21019;-52
2023/08/12 09:25:42;;;;;;;0.40;0.40;;;;;;;31.94;37.94;95603.78;5104010;28;20456;-52
2023/08/12 09:28:11;;;;;;;0.30;0.30;;;;;;;32.07;37.17;95595.13;5104646;28;20470;-52
2023/08/12 09:30:40;;;;;;;0.40;0.30;;;;;;;31.17;37.98;95510.94;5104952;28;20977;-52
2023/08/12 09:33:11;;;;;;;0.40;0.30;;;;;;;31.25;35.62;95598.13;5091060;28;20447;-51
2023/08/12 09:35:44;;;;;;;0.30;0.27;;;;;;;30.92;36.56;95598.56;5098098;28;20826;-51
2023/08/12 09:38:13;;;;;;;0.40;0.33;;;;;;;30.94;38.08;95584.50;5086241;28;20448;-51
2023/08/12 09:40:44;;;;;;;0.43;0.43;;;;;;;30.70;36.22;95592.31;5111731;28;20444;-50
2023/08/12 09:43:12;;;;;;;0.40;0.30;;;;;;;30.75;38.31;95585.66;5098843;28;20438;-53
2023/08/12 09:45:41;;;;;;;0.50;0.30;;;;;;;30.85;38.17;95586.81;5084011;28;20535;-54
2023/08/12 09:48:10;;;;;;;0.40;0.30;;;;;;;31.33;39.10;95579.72;5088499;28;20549;-52
2023/08/12 09:50:41;;;;;;;0.40;0.30;;;;;;;31.15;37.41;95584.47;5093293;28;20479;-54
2023/08/12 09:53:11;;;;;;;0.47;0.40;;;;;;;30.86;39.29;95580.97;5091739;28;20520;-55
2023/08/12 09:55:41;;;;;;;0.30;0.30;;;;;;;30.34;40.14;95570.75;5108615;28;20507;-54
2023/08/12 09:58:11;;;;;;;0.40;0.30;;;;;;;30.59;39.23;95590.72;5096809;28;20537;-54
2023/08/12 10:00:41;;;;;;;0.40;0.30;;;;;;;30.30;39.39;95586.41;5112521;28;20839;-54
2023/08/12 10:03:13;;;;;;;0.40;0.40;;;;;;;30.40;39.48;95583.72;5094199;28;20996;-54
2023/08/12 10:05:44;;;;;;;0.50;0.40;;;;;;;30.15;38.52;95580.91;5084991;28;20571;-56
2023/08/12 10:08:15;;;;;;;0.40;0.30;;;;;;;30.11;40.50;95573.84;5084911;28;20456;-54
2023/08/12 10:10:43;;;;;;;0.40;0.30;;;;;;;30.26;38.81;95578.19;5094288;28;20483;-56
2023/08/12 10:13:18;;;;;;;0.40;0.30;;;;;;;30.55;38.67;95573.56;5099199;28;20440;-57
2023/08/12 10:15:46;;;;;;;0.37;0.30;;;;;;;30.50;38.95;95574.72;5102578;28;20483;-56
2023/08/12 10:18:15;;;;;;;0.40;0.30;;;;;;;30.29;38.73;95574.66;5103110;28;20860;-57
2023/08/12 10:20:46;;;;;;;2.10;0.70;;;;;;;30.18;38.83;95580.13;5111654;28;20985;-58
2023/08/12 10:23:18;;;;;;;0.60;0.60;;;;;;;30.29;38.52;95568.41;5111663;28;20539;-57
2023/08/12 10:25:48;;;;;;;0.50;0.30;;;;;;;30.44;39.60;95570.03;5111313;28;20535;-57
2023/08/12 10:28:20;;;;;;;0.87;0.40;;;;;;;30.56;38.78;95566.91;5112023;28;20436;-57
2023/08/12 10:30:48;;;;;;;0.40;0.30;;;;;;;30.96;36.08;95550.09;5111469;28;20496;-57
2023/08/12 10:33:19;;;;;;;0.40;0.30;;;;;;;30.95;37.25;95550.47;5098607;28;20456;-56
2023/08/12 10:35:50;;;;;;;0.30;0.20;;;;;;;32.02;36.98;95560.69;5094457;28;20506;-55
2023/08/12 10:38:20;;;;;;;0.40;0.30;;;;;;;32.71;32.30;95549.63;5110026;28;20444;-55
2023/08/12 10:40:49;;;;;;;0.40;0.40;;;;;;;32.34;34.89;95547.53;5112997;28;20453;-54
2023/08/12 10:43:17;;;;;;;0.30;0.30;;;;;;;32.42;35.61;95551.00;5115287;28;20941;-55
2023/08/12 10:45:49;;;;;;;0.40;0.30;;;;;;;32.69;32.40;95546.47;5115389;28;20497;-56
2023/08/12 10:48:23;;;;;;;0.50;0.20;;;;;;;31.90;35.14;95545.44;5115238;28;20852;-54
2023/08/12 10:50:55;;;;;;;0.40;0.30;;;;;;;31.63;34.12;95546.34;5082518;28;20455;-55
2023/08/12 10:53:29;;;;;;;0.40;0.30;;;;;;;31.68;36.13;95535.75;5109851;28;20441;-54
2023/08/12 10:55:59;;;;;;;0.40;0.30;;;;;;;31.83;35.55;95536.47;5115072;28;20831;-56
2023/08/12 10:58:29;;;;;;;0.50;0.50;;;;;;;31.09;35.71;95534.81;5112234;28;20439;-55
2023/08/12 11:00:59;;;;;;;0.47;0.30;;;;;;;30.80;36.31;95534.06;5105095;28;20446;-56
2023/08/12 11:03:33;;;;;;;0.30;0.30;;;;;;;31.18;38.07;95532.44;5115391;28;20441;-56
2023/08/12 11:06:07;;;;;;;0.30;0.20;;;;;;;31.13;36.65;95515.63;5108051;28;20529;-56
2023/08/12 11:08:36;;;;;;;0.40;0.30;;;;;;;31.14;36.30;95517.19;5085756;28;20456;-55
2023/08/12 11:11:20;;;;;;;0.40;0.30;;;;;;;31.00;35.86;95526.22;5098463;28;20504;-56
2023/08/12 11:13:54;;;;;;;1.63;0.43;;;;;;;30.92;34.58;95526.63;5087494;28;20524;-55
2023/08/12 11:16:33;;;;;;;0.30;0.20;;;;;;;31.27;34.70;95512.84;5094544;28;20440;-57
2023/08/12 11:19:01;;;;;;;0.30;0.20;;;;;;;31.35;36.19;95512.41;5110407;28;20456;-55
2023/08/12 11:21:31;;;;;;;0.73;0.73;;;;;;;31.75;36.07;95511.06;5082675;28;21027;-55
2023/08/12 11:24:00;;;;;;;0.40;0.33;;;;;;;31.35;35.80;95506.91;5099249;28;20961;-55
2023/08/12 11:26:31;;;;;;;0.50;0.40;;;;;;;30.61;36.18;95511.81;5100509;28;20468;-55
2023/08/12 11:29:00;;;;;;;0.40;0.30;;;;;;;30.36;34.68;95516.50;5082307;28;20456;-56
2023/08/12 11:31:28;;;;;;;3.50;0.60;;;;;;;30.52;36.56;95511.41;5114652;28;20518;-57
2023/08/12 11:33:57;;;;;;;0.40;0.30;;;;;;;30.48;34.96;95510.63;5114023;28;20439;-58
2023/08/12 11:36:25;;;;;;;0.40;0.30;;;;;;;30.05;34.53;95507.88;5104654;28;20452;-58
2023/08/12 11:38:55;;;;;;;0.40;0.30;;;;;;;29.57;35.20;95512.03;5090494;28;20892;-57
2023/08/12 11:41:24;;;;;;;0.60;0.40;;;;;;;29.10;37.31;95510.25;5112772;28;20436;-58